Time;durP1;ratioP1;P1;durP2;ratioP2;P2;SDS_P1;SDS_P2;PMS_P1;PMS_P2;Temp;Humidity;BMP_temperature;BMP_pressure;BME280_temperature;BME280_humidity;BME280_pressure;Samples;Min_cycle;Max_cycle;Signal;HPM_P1;HPM_P2
2023/01/31 00:01:38;;;;;;;57.97;31.10;;;3.00;87.70;;;;;;5037046;28;20297;-65
2023/01/31 00:04:11;;;;;;;65.83;33.33;;;2.90;87.50;;;;;;5034565;28;20238;-65
2023/01/31 00:06:41;;;;;;;59.17;32.80;;;3.00;87.50;;;;;;5033957;28;20222;-64
2023/01/31 00:09:11;;;;;;;55.77;31.07;;;2.90;87.70;;;;;;5029785;28;20197;-65
2023/01/31 00:11:38;;;;;;;56.63;27.97;;;2.90;87.80;;;;;;5039414;28;20627;-65
2023/01/31 00:14:07;;;;;;;59.77;31.93;;;2.90;87.90;;;;;;5032788;28;20199;-65
2023/01/31 00:16:34;;;;;;;50.77;30.73;;;2.80;88.00;;;;;;5041193;28;20213;-65
2023/01/31 00:19:03;;;;;;;49.83;30.00;;;2.80;88.30;;;;;;5038838;28;20263;-64
2023/01/31 00:21:31;;;;;;;53.37;29.73;;;2.80;88.30;;;;;;5042738;28;20633;-65
2023/01/31 00:23:59;;;;;;;56.40;31.33;;;2.80;88.30;;;;;;5035463;28;20209;-65
2023/01/31 00:26:31;;;;;;;57.30;32.87;;;2.80;88.30;;;;;;5035535;28;20210;-64
2023/01/31 00:29:01;;;;;;;52.20;32.73;;;2.70;88.30;;;;;;5040496;28;20642;-65
2023/01/31 00:31:29;;;;;;;66.80;35.23;;;2.70;88.40;;;;;;5021620;28;20212;-66
2023/01/31 00:33:57;;;;;;;52.57;32.57;;;2.70;88.60;;;;;;5036683;28;20536;-65
2023/01/31 00:36:28;;;;;;;48.17;28.17;;;2.70;88.70;;;;;;5036681;28;20715;-66
2023/01/31 00:38:58;;;;;;;49.83;28.07;;;2.60;88.70;;;;;;5030270;28;20580;-65
2023/01/31 00:41:27;;;;;;;43.73;25.87;;;2.60;88.50;;;;;;5035954;28;20203;-65
2023/01/31 00:43:55;;;;;;;47.93;27.57;;;2.60;88.40;;;;;;5034147;28;20281;-65
2023/01/31 00:46:22;;;;;;;49.93;26.80;;;2.60;88.50;;;;;;5041218;28;20319;-65
2023/01/31 00:48:50;;;;;;;46.10;27.57;;;2.60;88.60;;;;;;5038932;28;20268;-65
2023/01/31 00:51:18;;;;;;;48.53;26.43;;;2.60;88.60;;;;;;5035122;28;20226;-64
2023/01/31 00:53:46;;;;;;;47.10;27.77;;;2.60;88.70;;;;;;5038153;28;20210;-65
2023/01/31 00:56:22;;;;;;;52.03;28.13;;;2.50;88.60;;;;;;5047954;28;20204;-65
2023/01/31 00:58:50;;;;;;;52.83;27.60;;;2.50;88.60;;;;;;5059072;28;20236;-65
2023/01/31 01:01:27;;;;;;;56.13;30.37;;;2.50;88.60;;;;;;5027653;28;20206;-65
2023/01/31 01:03:56;;;;;;;54.80;33.07;;;2.50;88.80;;;;;;5034674;28;20237;-66
2023/01/31 01:06:24;;;;;;;57.53;34.73;;;2.50;89.00;;;;;;5036987;28;20257;-64
2023/01/31 01:08:51;;;;;;;53.87;30.93;;;2.50;89.30;;;;;;5038187;28;20545;-65
2023/01/31 01:11:24;;;;;;;55.93;33.03;;;2.50;89.40;;;;;;5041358;28;20210;-65
2023/01/31 01:13:51;;;;;;;56.43;31.87;;;2.40;89.40;;;;;;5037427;28;20233;-65
2023/01/31 01:16:29;;;;;;;55.13;33.03;;;2.50;89.50;;;;;;5024306;28;20210;-66
2023/01/31 01:18:56;;;;;;;57.53;32.23;;;2.40;89.40;;;;;;5034602;28;20607;-65
2023/01/31 01:21:29;;;;;;;60.00;34.17;;;2.40;89.40;;;;;;5036610;28;20196;-65
2023/01/31 01:24:01;;;;;;;57.83;33.60;;;2.40;89.60;;;;;;5037299;28;20201;-65
2023/01/31 01:26:30;;;;;;;57.57;33.37;;;2.40;89.80;;;;;;5036732;28;20228;-64
2023/01/31 01:29:00;;;;;;;55.80;31.53;;;2.40;89.80;;;;;;5040112;28;20647;-65
2023/01/31 01:31:29;;;;;;;53.97;29.70;;;2.40;89.80;;;;;;5033271;28;20268;-66
2023/01/31 01:34:03;;;;;;;54.07;30.50;;;2.30;89.60;;;;;;5039586;28;20203;-65
2023/01/31 01:36:32;;;;;;;49.53;29.93;;;2.30;89.60;;;;;;5038263;28;20212;-64
2023/01/31 01:39:01;;;;;;;57.90;32.97;;;2.30;89.70;;;;;;5039607;28;20201;-64
2023/01/31 01:41:32;;;;;;;54.87;29.40;;;2.30;90.10;;;;;;5038461;28;20414;-65
2023/01/31 01:44:00;;;;;;;49.37;29.17;;;2.20;89.60;;;;;;5037308;28;20565;-65
2023/01/31 01:46:44;;;;;;;50.37;27.57;;;2.20;88.70;;;;;;5055629;28;20705;-65
2023/01/31 01:49:36;;;;;;;55.90;31.43;;;2.00;88.20;;;;;;5034614;28;20199;-65
2023/01/31 01:52:08;;;;;;;47.40;27.90;;;1.90;88.50;;;;;;5035666;28;20204;-66
2023/01/31 01:54:42;;;;;;;48.80;29.70;;;1.90;89.00;;;;;;5036791;28;20501;-65
2023/01/31 01:57:14;;;;;;;50.10;30.03;;;1.90;89.40;;;;;;5037622;28;20197;-65
2023/01/31 01:59:50;;;;;;;55.20;32.27;;;1.90;89.60;;;;;;5040473;28;20221;-64
2023/01/31 02:02:17;;;;;;;56.63;32.87;;;1.90;89.60;;;;;;5034372;28;20220;-64
2023/01/31 02:04:48;;;;;;;65.83;34.80;;;1.90;89.80;;;;;;5042677;28;20234;-64
2023/01/31 02:07:15;;;;;;;58.70;33.47;;;1.90;90.00;;;;;;5039968;28;20206;-65
2023/01/31 02:10:07;;;;;;;56.90;33.20;;;1.90;90.10;;;;;;5036115;28;20221;-64
2023/01/31 02:12:35;;;;;;;56.23;32.30;;;2.00;90.30;;;;;;5041586;28;20220;-65
2023/01/31 02:15:02;;;;;;;52.00;32.13;;;2.00;90.20;;;;;;5040961;28;20541;-64
2023/01/31 02:17:29;;;;;;;58.20;34.47;;;1.90;90.10;;;;;;5039061;28;20235;-65
2023/01/31 02:20:18;;;;;;;50.77;30.90;;;1.90;90.10;;;;;;5031540;28;20213;-64
2023/01/31 02:23:13;;;;;;;60.23;32.87;;;1.90;90.20;;;;;;5038129;28;20196;-65
2023/01/31 02:26:10;;;;;;;64.97;35.90;;;1.90;90.20;;;;;;5032641;28;20294;-64
2023/01/31 02:28:59;;;;;;;63.20;35.83;;;1.90;90.20;;;;;;5038281;28;20226;-64
2023/01/31 02:31:47;;;;;;;68.43;36.67;;;1.90;90.30;;;;;;5037608;28;20213;-63
2023/01/31 02:34:17;;;;;;;68.60;35.40;;;1.90;90.40;;;;;;5052434;28;20690;-64
2023/01/31 02:36:56;;;;;;;65.70;37.37;;;1.90;90.50;;;;;;5031193;28;20201;-64
2023/01/31 02:39:58;;;;;;;60.03;34.67;;;1.90;90.60;;;;;;5039495;28;20211;-64
2023/01/31 02:42:37;;;;;;;65.13;33.97;;;1.90;90.70;;;;;;5036341;28;20301;-64
2023/01/31 02:45:28;;;;;;;61.97;34.03;;;1.90;90.60;;;;;;5040387;28;20347;-64
2023/01/31 02:48:19;;;;;;;66.67;37.63;;;1.80;90.60;;;;;;5038550;28;20225;-64
2023/01/31 02:51:08;;;;;;;66.23;36.47;;;1.90;90.70;;;;;;5045187;28;20637;-65
2023/01/31 02:53:44;;;;;;;60.97;35.90;;;1.90;90.80;;;;;;5040865;28;20229;-64
2023/01/31 02:56:21;;;;;;;60.17;34.00;;;1.80;90.90;;;;;;5011460;28;20259;-64
2023/01/31 02:58:55;;;;;;;64.37;34.80;;;1.90;91.00;;;;;;5027169;28;20213;-64
2023/01/31 03:01:27;;;;;;;57.07;32.07;;;1.90;91.00;;;;;;5033307;28;20655;-64
2023/01/31 03:04:02;;;;;;;65.43;36.77;;;1.90;91.00;;;;;;5039810;28;20239;-65
2023/01/31 03:06:32;;;;;;;73.67;37.30;;;1.90;90.90;;;;;;5033814;28;20267;-66
2023/01/31 03:09:09;;;;;;;63.83;35.20;;;1.90;90.90;;;;;;5038807;28;20205;-64
2023/01/31 03:11:39;;;;;;;67.33;36.90;;;1.90;91.00;;;;;;5036389;28;20270;-65
2023/01/31 03:14:35;;;;;;;72.47;37.13;;;1.90;91.10;;;;;;5033306;28;20198;-65
2023/01/31 03:17:32;;;;;;;60.03;35.50;;;1.90;91.10;;;;;;5033451;28;20222;-68
2023/01/31 03:20:05;;;;;;;68.73;37.27;;;1.90;91.20;;;;;;5030957;28;20296;-64
2023/01/31 03:22:38;;;;;;;71.20;36.07;;;1.90;91.20;;;;;;5050183;28;20515;-65
2023/01/31 03:25:09;;;;;;;65.07;35.27;;;2.00;91.30;;;;;;5055230;28;20279;-64
2023/01/31 03:27:42;;;;;;;68.33;34.77;;;2.00;91.40;;;;;;5036514;28;20327;-65
2023/01/31 03:30:17;;;;;;;64.50;34.30;;;2.00;91.40;;;;;;5038670;28;20558;-64
2023/01/31 03:32:51;;;;;;;63.33;34.60;;;2.00;91.70;;;;;;5033755;28;20205;-65
2023/01/31 03:35:22;;;;;;;63.50;33.77;;;2.00;91.40;;;;;;5039784;28;20241;-65
2023/01/31 03:38:06;;;;;;;60.67;34.30;;;2.00;91.40;;;;;;5035539;28;20698;-65
2023/01/31 03:40:40;;;;;;;60.67;34.30;;;2.00;91.30;;;;;;5038780;28;20222;-65
2023/01/31 03:43:32;;;;;;;66.23;34.70;;;2.00;91.30;;;;;;5035927;28;20292;-64
2023/01/31 03:46:12;;;;;;;64.70;34.30;;;2.00;91.30;;;;;;5030751;28;20217;-67
2023/01/31 03:48:43;;;;;;;62.97;33.90;;;2.00;91.30;;;;;;5050214;28;20234;-64
2023/01/31 03:51:18;;;;;;;58.93;33.13;;;1.90;91.20;;;;;;5036827;28;20537;-64
2023/01/31 03:53:53;;;;;;;61.57;33.00;;;1.90;91.10;;;;;;5039166;28;20281;-65
2023/01/31 03:56:45;;;;;;;61.07;32.40;;;1.80;91.00;;;;;;5036150;28;20221;-64
2023/01/31 03:59:21;;;;;;;64.77;32.73;;;1.80;91.20;;;;;;5038598;28;20642;-66
2023/01/31 04:01:53;;;;;;;56.63;33.53;;;1.80;91.30;;;;;;5021829;28;20217;-64
2023/01/31 04:04:36;;;;;;;55.07;32.20;;;1.80;91.40;;;;;;5020043;28;20251;-64
2023/01/31 04:07:05;;;;;;;58.43;31.07;;;1.70;91.40;;;;;;5034449;28;20555;-64
2023/01/31 04:09:38;;;;;;;54.63;30.23;;;1.70;91.40;;;;;;5036394;28;20204;-66
2023/01/31 04:12:05;;;;;;;64.97;31.13;;;1.70;91.40;;;;;;5037368;28;20196;-65
2023/01/31 04:14:32;;;;;;;68.20;32.07;;;1.70;91.40;;;;;;5031354;28;20633;-64
2023/01/31 04:16:59;;;;;;;52.73;29.37;;;1.70;91.40;;;;;;5030632;28;20546;-65
2023/01/31 04:19:26;;;;;;;48.17;29.70;;;1.70;91.40;;;;;;5040704;28;20220;-64
2023/01/31 04:21:53;;;;;;;56.03;29.90;;;1.70;91.40;;;;;;5033157;28;20204;-64
2023/01/31 04:24:20;;;;;;;62.03;31.37;;;1.60;91.20;;;;;;5039464;28;20204;-69
2023/01/31 04:26:48;;;;;;;54.47;29.87;;;1.60;91.20;;;;;;5038266;28;20194;-65
2023/01/31 04:29:15;;;;;;;56.93;30.03;;;1.50;91.30;;;;;;5035766;28;20554;-64
2023/01/31 04:31:42;;;;;;;51.23;30.23;;;1.50;91.40;;;;;;5035515;28;20526;-64
2023/01/31 04:34:09;;;;;;;57.07;31.67;;;1.50;91.40;;;;;;5038548;28;20292;-65
2023/01/31 04:36:37;;;;;;;57.77;31.37;;;1.50;91.30;;;;;;5031644;28;20212;-65
2023/01/31 04:39:04;;;;;;;58.00;31.43;;;1.50;91.40;;;;;;5028048;28;20532;-66
2023/01/31 04:41:31;;;;;;;56.97;31.20;;;1.50;91.50;;;;;;5029731;28;20206;-65
2023/01/31 04:43:58;;;;;;;47.87;28.57;;;1.50;91.50;;;;;;5029145;28;20198;-64
2023/01/31 04:46:25;;;;;;;61.77;30.03;;;1.40;91.50;;;;;;5039912;28;20219;-65
2023/01/31 04:48:53;;;;;;;53.20;30.13;;;1.40;91.50;;;;;;5039288;28;20229;-65
2023/01/31 04:51:20;;;;;;;56.33;31.57;;;1.40;91.50;;;;;;5038612;28;20207;-65
2023/01/31 04:53:47;;;;;;;54.27;31.03;;;1.40;91.50;;;;;;5036736;28;20204;-64
2023/01/31 04:56:14;;;;;;;53.03;30.50;;;1.40;91.40;;;;;;5035480;28;20200;-65
2023/01/31 04:58:42;;;;;;;60.23;32.40;;;1.30;91.40;;;;;;5035108;28;20199;-65
2023/01/31 05:01:09;;;;;;;53.60;31.33;;;1.30;91.40;;;;;;5031600;28;20206;-65
2023/01/31 05:03:36;;;;;;;49.80;30.03;;;1.30;91.40;;;;;;5036346;28;20240;-65
2023/01/31 05:06:03;;;;;;;59.50;30.10;;;1.30;91.40;;;;;;5034736;28;20204;-64
2023/01/31 05:08:30;;;;;;;51.40;29.67;;;1.30;91.40;;;;;;5036997;28;20228;-65
2023/01/31 05:10:58;;;;;;;50.47;28.57;;;1.30;91.40;;;;;;5031278;28;20202;-65
2023/01/31 05:13:31;;;;;;;56.60;30.63;;;1.30;91.40;;;;;;5036355;28;20202;-65
2023/01/31 05:15:58;;;;;;;56.17;31.73;;;1.20;91.30;;;;;;5037002;28;20193;-65
2023/01/31 05:18:26;;;;;;;56.33;30.73;;;1.20;91.40;;;;;;5036096;28;20193;-64
2023/01/31 05:20:53;;;;;;;55.50;29.97;;;1.20;91.40;;;;;;5035433;28;20212;-64
2023/01/31 05:23:20;;;;;;;56.43;28.73;;;1.10;91.40;;;;;;5036070;28;20213;-65
2023/01/31 05:25:49;;;;;;;66.77;31.90;;;1.10;91.50;;;;;;5038515;28;20657;-64
2023/01/31 05:28:17;;;;;;;59.03;30.30;;;1.10;91.40;;;;;;5036939;28;20220;-64
2023/01/31 05:30:44;;;;;;;52.43;29.23;;;1.10;91.30;;;;;;5025073;28;20265;-64
2023/01/31 05:33:12;;;;;;;58.77;30.63;;;1.00;91.40;;;;;;5028396;28;20613;-64
2023/01/31 05:35:41;;;;;;;62.27;33.17;;;1.00;91.50;;;;;;5036071;28;20204;-64
2023/01/31 05:38:08;;;;;;;54.13;29.83;;;1.00;91.60;;;;;;5028919;28;20205;-64
2023/01/31 05:40:35;;;;;;;51.53;29.10;;;1.00;91.70;;;;;;5037973;28;20214;-65
2023/01/31 05:43:02;;;;;;;47.43;27.37;;;1.00;91.70;;;;;;5035813;28;20213;-64
2023/01/31 05:45:30;;;;;;;53.80;27.37;;;1.00;91.60;;;;;;5037492;28;20206;-64
2023/01/31 05:47:57;;;;;;;48.53;27.33;;;0.90;91.40;;;;;;5029199;28;20622;-64
2023/01/31 05:50:25;;;;;;;52.00;29.83;;;0.90;91.30;;;;;;5038711;28;20200;-64
2023/01/31 05:52:54;;;;;;;55.87;28.93;;;0.90;91.30;;;;;;5034785;28;20205;-66
2023/01/31 05:55:21;;;;;;;52.93;28.50;;;0.80;91.30;;;;;;5034447;28;20212;-66
2023/01/31 05:57:48;;;;;;;51.23;28.07;;;0.80;91.10;;;;;;5038759;28;20286;-64
2023/01/31 06:00:16;;;;;;;50.20;28.30;;;0.80;91.00;;;;;;5037216;28;20217;-67
2023/01/31 06:02:43;;;;;;;59.13;28.30;;;0.70;91.00;;;;;;5035255;28;20210;-64
2023/01/31 06:05:11;;;;;;;54.63;27.43;;;0.70;91.10;;;;;;5035271;28;20636;-64
2023/01/31 06:07:38;;;;;;;48.70;27.67;;;0.70;91.10;;;;;;5037740;28;20228;-64
2023/01/31 06:10:07;;;;;;;50.00;26.93;;;0.70;91.10;;;;;;5039773;28;20262;-64
2023/01/31 06:12:35;;;;;;;48.53;26.60;;;0.70;90.90;;;;;;5034260;28;20197;-64
2023/01/31 06:15:03;;;;;;;46.43;26.03;;;0.60;90.50;;;;;;5042886;28;20204;-64
2023/01/31 06:17:30;;;;;;;53.90;28.30;;;0.50;90.30;;;;;;5038045;28;20216;-64
2023/01/31 06:19:57;;;;;;;54.70;28.30;;;0.50;90.30;;;;;;5036759;28;20516;-65
2023/01/31 06:22:24;;;;;;;47.77;27.07;;;0.50;90.50;;;;;;5041139;28;20189;-65
2023/01/31 06:24:52;;;;;;;51.70;27.90;;;0.50;90.70;;;;;;5040772;28;20622;-64
2023/01/31 06:27:19;;;;;;;49.60;27.73;;;0.50;90.80;;;;;;5036204;28;20200;-65
2023/01/31 06:29:46;;;;;;;53.00;29.00;;;0.50;90.90;;;;;;5037419;28;20225;-64
2023/01/31 06:32:13;;;;;;;50.93;28.87;;;0.50;91.00;;;;;;5038726;28;20530;-65
2023/01/31 06:34:40;;;;;;;54.90;27.53;;;0.50;91.00;;;;;;5040406;28;20536;-66
2023/01/31 06:37:10;;;;;;;54.33;29.07;;;0.50;91.00;;;;;;5041323;28;20206;-64
2023/01/31 06:39:37;;;;;;;60.17;28.33;;;0.50;90.90;;;;;;5039740;28;20641;-64
2023/01/31 06:42:04;;;;;;;57.87;28.87;;;0.50;90.90;;;;;;5036397;28;20205;-65
2023/01/31 06:44:34;;;;;;;52.83;30.63;;;0.50;91.00;;;;;;5038369;28;20305;-64
2023/01/31 06:47:01;;;;;;;60.37;31.17;;;0.50;91.10;;;;;;5037670;28;20205;-65
2023/01/31 06:49:28;;;;;;;72.63;33.27;;;0.50;91.10;;;;;;5035079;28;20221;-64
2023/01/31 06:51:58;;;;;;;64.63;31.87;;;0.50;91.10;;;;;;5037874;28;20269;-64
2023/01/31 06:54:25;;;;;;;63.73;33.43;;;0.50;91.20;;;;;;5039696;28;20196;-65
2023/01/31 06:56:52;;;;;;;58.07;32.90;;;0.60;91.40;;;;;;5032873;28;20198;-65
2023/01/31 06:59:19;;;;;;;59.97;33.50;;;0.70;91.50;;;;;;5033335;28;20197;-65
2023/01/31 07:01:46;;;;;;;62.53;32.00;;;0.80;91.40;;;;;;5038115;28;20193;-64
2023/01/31 07:04:16;;;;;;;53.73;30.83;;;0.80;91.30;;;;;;5034897;28;20246;-64
2023/01/31 07:06:43;;;;;;;64.67;31.50;;;0.90;91.20;;;;;;5041090;28;20213;-65
2023/01/31 07:09:11;;;;;;;59.13;30.73;;;1.00;91.10;;;;;;5039745;28;20245;-65
2023/01/31 07:11:38;;;;;;;59.63;32.30;;;1.00;91.00;;;;;;5031529;28;20519;-64
2023/01/31 07:14:05;;;;;;;60.03;31.47;;;1.00;91.10;;;;;;5035895;28;20504;-64
2023/01/31 07:16:32;;;;;;;56.37;31.40;;;1.10;91.10;;;;;;5039919;28;20646;-64
2023/01/31 07:18:59;;;;;;;62.03;31.80;;;1.10;91.00;;;;;;5032721;28;20200;-64
2023/01/31 07:21:26;;;;;;;65.10;33.17;;;1.30;90.90;;;;;;5035714;28;20204;-64
2023/01/31 07:23:53;;;;;;;66.03;34.60;;;1.40;90.60;;;;;;5041577;28;20267;-64
2023/01/31 07:26:20;;;;;;;55.27;31.10;;;1.60;90.10;;;;;;5027611;28;20627;-65
2023/01/31 07:28:47;;;;;;;66.40;33.53;;;1.70;89.70;;;;;;5041451;28;20217;-65
2023/01/31 07:31:14;;;;;;;63.33;33.83;;;1.80;89.20;;;;;;5035682;28;20200;-65
2023/01/31 07:33:41;;;;;;;63.13;33.57;;;1.80;89.10;;;;;;5038494;28;20656;-64
2023/01/31 07:36:12;;;;;;;61.03;33.77;;;1.90;89.50;;;;;;5035803;28;20219;-65
2023/01/31 07:38:40;;;;;;;63.57;35.23;;;1.90;89.90;;;;;;5034820;28;20197;-65
2023/01/31 07:41:09;;;;;;;64.90;33.20;;;1.90;90.00;;;;;;5029953;28;20700;-65
2023/01/31 07:43:36;;;;;;;61.17;32.80;;;1.90;90.20;;;;;;5032568;28;20224;-65
2023/01/31 07:46:08;;;;;;;61.20;34.70;;;1.90;90.40;;;;;;5037723;28;20589;-65
2023/01/31 07:48:35;;;;;;;62.83;34.70;;;2.10;90.50;;;;;;5033785;28;20228;-65
2023/01/31 07:51:02;;;;;;;69.30;36.90;;;2.40;90.40;;;;;;5028048;28;20197;-65
2023/01/31 07:53:32;;;;;;;69.97;36.50;;;2.60;90.10;;;;;;5034737;28;20197;-64
2023/01/31 07:56:25;;;;;;;70.87;36.70;;;2.80;89.80;;;;;;5038236;28;20193;-65
2023/01/31 07:58:52;;;;;;;69.47;35.83;;;3.00;89.30;;;;;;5035905;28;20209;-65
2023/01/31 08:04:10;;;;;;;66.30;35.00;;;3.20;88.90;;;;;;5031689;28;20240;-65
2023/01/31 08:06:49;;;;;;;62.00;35.37;;;3.30;88.80;;;;;;5036633;28;20231;-65
2023/01/31 08:09:16;;;;;;;67.73;37.43;;;3.30;88.90;;;;;;5040094;28;20293;-65
2023/01/31 08:11:43;;;;;;;70.27;34.57;;;3.40;89.00;;;;;;5030764;28;20206;-66
2023/01/31 08:14:10;;;;;;;64.07;34.43;;;3.40;89.30;;;;;;5031212;28;20198;-65
2023/01/31 08:16:38;;;;;;;52.77;32.93;;;3.40;89.50;;;;;;5033763;28;20287;-65
2023/01/31 08:19:05;;;;;;;59.97;33.53;;;3.50;89.80;;;;;;5036589;28;20205;-65
2023/01/31 08:21:32;;;;;;;58.43;33.27;;;3.50;90.00;;;;;;5041024;28;20203;-65
2023/01/31 08:23:59;;;;;;;65.47;35.00;;;3.60;90.00;;;;;;5040022;28;20201;-65
2023/01/31 08:26:26;;;;;;;57.37;35.07;;;3.60;90.10;;;;;;5038751;28;20206;-64
2023/01/31 08:28:53;;;;;;;61.57;34.37;;;3.70;90.10;;;;;;5037915;28;20228;-65
2023/01/31 08:31:23;;;;;;;66.03;36.47;;;3.80;90.10;;;;;;5031549;28;20296;-65
2023/01/31 08:33:52;;;;;;;62.53;37.07;;;3.80;90.10;;;;;;5038157;28;20733;-65
2023/01/31 08:36:22;;;;;;;61.53;34.60;;;3.90;90.10;;;;;;5036754;28;20287;-65
2023/01/31 08:38:50;;;;;;;66.33;37.20;;;4.00;90.10;;;;;;5035412;28;20225;-64
2023/01/31 08:41:18;;;;;;;64.27;37.17;;;4.10;90.10;;;;;;5028287;28;20206;-65
2023/01/31 08:43:47;;;;;;;78.27;37.50;;;4.30;90.10;;;;;;5031127;28;20562;-65
2023/01/31 08:46:28;;;;;;;72.90;38.27;;;4.40;90.00;;;;;;5034188;28;20209;-66
2023/01/31 08:48:57;;;;;;;68.50;38.00;;;4.50;90.00;;;;;;5038254;28;20219;-65
2023/01/31 08:51:25;;;;;;;74.33;40.07;;;4.60;89.80;;;;;;5035744;28;20678;-65
2023/01/31 08:53:52;;;;;;;76.07;40.13;;;4.70;89.60;;;;;;5037981;28;20620;-65
2023/01/31 08:56:24;;;;;;;68.37;40.47;;;4.80;89.40;;;;;;5032973;28;20200;-65
2023/01/31 08:58:53;;;;;;;70.37;37.70;;;4.90;89.30;;;;;;5033468;28;20210;-66
2023/01/31 09:01:21;;;;;;;63.13;37.90;;;5.00;89.10;;;;;;5033345;28;20194;-65
2023/01/31 09:03:49;;;;;;;81.97;41.23;;;5.10;88.90;;;;;;5040339;28;20261;-65
2023/01/31 09:06:18;;;;;;;68.00;38.23;;;5.20;88.80;;;;;;5027182;28;20199;-65
2023/01/31 09:08:46;;;;;;;67.10;38.77;;;5.30;88.70;;;;;;5038595;28;20211;-65
2023/01/31 09:11:17;;;;;;;63.17;36.20;;;5.40;88.50;;;;;;5035488;28;20232;-65
2023/01/31 09:13:50;;;;;;;63.80;38.27;;;5.50;88.00;;;;;;5030029;28;20264;-65
2023/01/31 09:16:18;;;;;;;67.97;39.03;;;5.50;87.50;;;;;;5036937;28;20204;-65
2023/01/31 09:18:45;;;;;;;75.30;40.57;;;5.60;87.30;;;;;;5037509;28;20210;-65
2023/01/31 09:21:20;;;;;;;63.00;38.03;;;5.70;87.20;;;;;;5035685;28;20214;-66
2023/01/31 09:23:52;;;;;;;64.33;37.20;;;5.70;87.10;;;;;;5035716;28;20205;-66
2023/01/31 09:26:19;;;;;;;72.10;40.47;;;5.80;87.10;;;;;;5038655;28;20199;-64
2023/01/31 09:28:48;;;;;;;66.17;38.10;;;5.90;87.00;;;;;;5039217;28;20229;-65
2023/01/31 09:31:17;;;;;;;64.40;38.87;;;6.00;86.80;;;;;;5033895;28;20199;-66
2023/01/31 09:33:44;;;;;;;70.73;39.37;;;6.00;86.70;;;;;;5038899;28;20209;-65
2023/01/31 09:36:17;;;;;;;71.50;38.77;;;6.10;86.60;;;;;;5035447;28;20204;-65
2023/01/31 09:38:44;;;;;;;75.73;40.47;;;6.20;86.50;;;;;;5032480;28;20206;-65
2023/01/31 09:41:22;;;;;;;84.63;46.00;;;6.30;86.60;;;;;;5039830;28;20223;-65
2023/01/31 09:44:04;;;;;;;72.30;44.63;;;6.40;86.50;;;;;;5040207;28;20214;-65
2023/01/31 09:46:38;;;;;;;78.17;41.70;;;6.50;86.40;;;;;;5041161;28;20567;-65
2023/01/31 09:49:21;;;;;;;67.13;38.83;;;6.50;86.20;;;;;;5040520;28;20262;-65
2023/01/31 09:51:54;;;;;;;62.50;37.20;;;6.60;86.00;;;;;;5038441;28;20206;-66
2023/01/31 09:54:27;;;;;;;62.90;36.43;;;6.70;86.00;;;;;;5035179;28;20198;-65
2023/01/31 09:57:07;;;;;;;60.93;36.63;;;6.80;85.90;;;;;;5039685;28;20631;-67
2023/01/31 09:59:52;;;;;;;58.00;33.23;;;6.90;85.90;;;;;;5033376;28;20639;-65
2023/01/31 10:02:41;;;;;;;87.70;43.93;;;7.00;85.90;;;;;;5038395;28;20204;-65
2023/01/31 10:05:23;;;;;;;90.07;45.80;;;7.10;85.70;;;;;;5041921;28;20243;-65
2023/01/31 10:08:02;;;;;;;85.23;44.53;;;7.20;85.60;;;;;;5038081;28;20289;-65
2023/01/31 10:10:41;;;;;;;151.13;74.37;;;7.30;85.90;;;;;;5040650;28;20660;-65
2023/01/31 10:13:21;;;;;;;132.87;72.63;;;7.40;85.20;;;;;;5037756;28;20198;-66
2023/01/31 10:15:58;;;;;;;66.40;39.43;;;7.50;85.00;;;;;;5040556;28;20194;-63
2023/01/31 10:18:30;;;;;;;55.07;31.77;;;7.60;84.80;;;;;;5033640;28;20196;-64
2023/01/31 10:21:14;;;;;;;55.33;32.53;;;7.70;84.40;;;;;;5039927;28;20508;-62
2023/01/31 10:23:58;;;;;;;55.53;30.13;;;7.70;84.00;;;;;;5032933;28;20547;-64
2023/01/31 10:26:29;;;;;;;45.10;26.97;;;7.80;84.00;;;;;;5036752;28;20513;-64
2023/01/31 10:29:12;;;;;;;48.47;28.63;;;7.90;83.80;;;;;;5039725;28;20318;-63
2023/01/31 10:31:52;;;;;;;41.87;26.57;;;7.90;83.40;;;;;;5030287;28;20248;-63
2023/01/31 10:34:25;;;;;;;43.70;26.13;;;8.00;83.20;;;;;;5030393;28;20556;-63
2023/01/31 10:37:16;;;;;;;45.03;25.97;;;8.10;82.90;;;;;;5044404;28;20615;-62
2023/01/31 10:39:51;;;;;;;37.83;25.63;;;8.30;82.80;;;;;;5034407;28;20231;-63
2023/01/31 10:42:24;;;;;;;42.67;24.97;;;8.40;82.70;;;;;;5034557;28;20211;-65
2023/01/31 10:45:00;;;;;;;41.30;24.70;;;8.40;82.20;;;;;;5038509;28;20260;-64
2023/01/31 10:47:33;;;;;;;47.87;26.33;;;8.50;81.90;;;;;;5036240;28;20260;-66
2023/01/31 10:50:11;;;;;;;47.60;25.27;;;8.70;81.60;;;;;;5036579;28;20776;-63
2023/01/31 10:53:00;;;;;;;43.67;27.07;;;8.70;81.40;;;;;;5033201;28;20278;-63
2023/01/31 10:55:30;;;;;;;42.53;25.87;;;8.80;81.20;;;;;;5033246;28;20201;-64
2023/01/31 10:57:58;;;;;;;43.33;25.90;;;8.90;81.00;;;;;;5035376;28;20202;-63
2023/01/31 11:00:32;;;;;;;40.83;23.90;;;9.00;80.90;;;;;;5037140;28;20287;-63
2023/01/31 11:02:59;;;;;;;39.10;24.53;;;9.10;80.90;;;;;;5041495;28;20272;-63
2023/01/31 11:05:29;;;;;;;40.07;24.70;;;9.20;80.80;;;;;;5041868;28;20240;-65
2023/01/31 11:08:05;;;;;;;41.57;24.90;;;9.20;80.30;;;;;;5037771;28;20224;-65
2023/01/31 11:10:32;;;;;;;42.90;24.50;;;9.30;80.00;;;;;;5009765;28;20216;-64
2023/01/31 11:13:06;;;;;;;47.70;27.87;;;9.40;79.90;;;;;;5039127;28;20224;-63
2023/01/31 11:15:41;;;;;;;46.60;28.23;;;9.50;79.50;;;;;;5038081;28;20213;-64
2023/01/31 11:18:24;;;;;;;49.27;28.63;;;9.50;78.90;;;;;;5029398;28;20630;-63
2023/01/31 11:20:51;;;;;;;50.13;28.97;;;9.60;78.70;;;;;;5037587;28;20213;-64
2023/01/31 11:23:24;;;;;;;51.30;30.20;;;9.70;78.90;;;;;;5035373;28;20228;-63
2023/01/31 11:25:52;;;;;;;47.77;29.63;;;9.80;78.80;;;;;;5032123;28;20201;-65
2023/01/31 11:28:35;;;;;;;50.60;29.50;;;9.90;78.80;;;;;;5040753;28;20197;-63
2023/01/31 11:31:05;;;;;;;49.83;30.23;;;10.00;78.70;;;;;;5035599;28;20260;-64
2023/01/31 11:33:53;;;;;;;54.73;32.23;;;10.10;78.50;;;;;;5038792;28;20687;-62
2023/01/31 11:36:25;;;;;;;48.27;31.27;;;10.20;78.30;;;;;;5034809;28;20256;-63
2023/01/31 11:38:53;;;;;;;46.73;29.40;;;10.30;78.10;;;;;;5036873;28;20537;-62
2023/01/31 11:41:34;;;;;;;55.80;32.50;;;10.40;77.90;;;;;;5036389;28;20205;-62
2023/01/31 11:44:17;;;;;;;50.10;31.13;;;10.50;77.40;;;;;;5037520;28;20650;-63
2023/01/31 11:47:02;;;;;;;58.07;34.20;;;10.60;76.90;;;;;;5031839;28;20205;-63
2023/01/31 11:49:40;;;;;;;53.93;31.23;;;10.70;77.10;;;;;;5028274;28;20225;-63
2023/01/31 11:52:27;;;;;;;54.87;32.03;;;10.80;77.00;;;;;;5039075;28;20204;-64
2023/01/31 11:54:57;;;;;;;48.90;30.63;;;10.90;76.60;;;;;;5033069;28;20634;-63
2023/01/31 11:57:35;;;;;;;55.13;32.30;;;11.00;76.50;;;;;;5041036;28;20208;-62
2023/01/31 12:00:21;;;;;;;44.87;30.50;;;11.10;76.10;;;;;;5020261;28;20205;-62
2023/01/31 12:03:01;;;;;;;54.73;34.37;;;11.20;75.60;;;;;;5032780;28;20208;-64
2023/01/31 12:05:38;;;;;;;55.37;32.73;;;11.30;75.40;;;;;;5036886;28;20237;-64
2023/01/31 12:08:24;;;;;;;45.30;30.20;;;11.40;75.40;;;;;;5039311;28;20546;-62
2023/01/31 12:10:55;;;;;;;51.57;32.97;;;11.40;75.10;;;;;;5033293;28;20312;-64
2023/01/31 12:13:23;;;;;;;51.13;32.37;;;11.50;74.90;;;;;;5033507;28;20210;-64
2023/01/31 12:15:56;;;;;;;54.03;32.40;;;11.60;74.80;;;;;;5042350;28;20991;-64
2023/01/31 12:18:48;;;;;;;54.80;33.20;;;11.70;74.60;;;;;;5031570;28;20278;-62
2023/01/31 12:21:21;;;;;;;55.87;34.90;;;11.80;74.10;;;;;;5039790;28;20218;-63
2023/01/31 12:23:52;;;;;;;61.83;37.33;;;11.80;73.50;;;;;;5038779;28;20709;-63
2023/01/31 12:26:46;;;;;;;61.13;36.30;;;11.80;72.90;;;;;;5040973;28;20210;-64
2023/01/31 12:29:45;;;;;;;56.83;36.17;;;11.80;72.80;;;;;;5036015;28;20213;-64
2023/01/31 12:32:30;;;;;;;51.23;34.67;;;11.90;72.70;;;;;;5035870;28;20741;-65
2023/01/31 12:35:24;;;;;;;58.23;35.53;;;11.90;72.10;;;;;;5034261;28;20198;-65
2023/01/31 12:38:11;;;;;;;58.20;36.37;;;11.90;71.90;;;;;;5036242;28;20197;-65
2023/01/31 12:40:46;;;;;;;63.30;37.60;;;11.90;71.90;;;;;;5034147;28;20272;-65
2023/01/31 12:43:40;;;;;;;63.90;36.40;;;11.90;72.40;;;;;;5032579;28;20206;-64
2023/01/31 12:46:30;;;;;;;61.83;37.10;;;12.00;72.30;;;;;;5054348;28;20212;-63
2023/01/31 12:49:24;;;;;;;58.77;37.93;;;12.00;71.90;;;;;;5031205;28;20201;-63
2023/01/31 12:52:00;;;;;;;60.13;37.63;;;12.00;72.10;;;;;;5039391;28;20537;-64
2023/01/31 12:54:50;;;;;;;56.73;39.23;;;12.10;70.50;;;;;;5035467;28;20213;-63
2023/01/31 12:57:20;;;;;;;59.97;37.40;;;12.10;70.70;;;;;;5034824;28;20277;-63
2023/01/31 13:00:14;;;;;;;54.00;37.03;;;12.00;70.80;;;;;;5034581;28;20245;-65
2023/01/31 13:03:02;;;;;;;55.00;37.13;;;12.00;71.10;;;;;;5039790;28;20559;-64
2023/01/31 13:05:41;;;;;;;59.40;36.70;;;12.10;71.40;;;;;;5038848;28;20562;-65
2023/01/31 13:08:36;;;;;;;59.20;37.00;;;12.10;69.90;;;;;;5038990;28;20206;-65